sensor_id;sensor_type;location;lat;lon;timestamp;P1;durP1;ratioP1;P2;durP2;ratioP2
27999;SDS011;15328;50.860;10.562;2023-03-01T00:04:39;22.23;;;12.45;;
27999;SDS011;15328;50.860;10.562;2023-03-01T00:09:40;26.13;;;13.60;;
27999;SDS011;15328;50.860;10.562;2023-03-01T00:14:40;24.65;;;12.65;;
27999;SDS011;15328;50.860;10.562;2023-03-01T00:19:40;26.85;;;13.48;;
27999;SDS011;15328;50.860;10.562;2023-03-01T00:24:41;24.63;;;12.80;;
27999;SDS011;15328;50.860;10.562;2023-03-01T00:29:41;24.15;;;13.88;;
27999;SDS011;15328;50.860;10.562;2023-03-01T00:34:42;26.77;;;13.97;;
27999;SDS011;15328;50.860;10.562;2023-03-01T00:39:42;22.15;;;12.80;;
27999;SDS011;15328;50.860;10.562;2023-03-01T00:44:42;25.20;;;13.48;;
27999;SDS011;15328;50.860;10.562;2023-03-01T00:49:43;23.33;;;13.10;;
27999;SDS011;15328;50.860;10.562;2023-03-01T00:54:43;25.55;;;13.50;;
27999;SDS011;15328;50.860;10.562;2023-03-01T00:59:43;28.48;;;13.60;;
27999;SDS011;15328;50.860;10.562;2023-03-01T01:04:44;24.20;;;12.87;;
27999;SDS011;15328;50.860;10.562;2023-03-01T01:09:45;29.05;;;13.57;;
27999;SDS011;15328;50.860;10.562;2023-03-01T01:14:45;26.08;;;13.23;;
27999;SDS011;15328;50.860;10.562;2023-03-01T01:19:46;24.40;;;13.48;;
27999;SDS011;15328;50.860;10.562;2023-03-01T01:24:46;24.40;;;12.77;;
27999;SDS011;15328;50.860;10.562;2023-03-01T01:29:46;24.13;;;12.90;;
27999;SDS011;15328;50.860;10.562;2023-03-01T01:34:47;25.80;;;12.65;;
27999;SDS011;15328;50.860;10.562;2023-03-01T01:39:47;28.42;;;14.02;;
27999;SDS011;15328;50.860;10.562;2023-03-01T01:44:48;25.45;;;13.57;;
27999;SDS011;15328;50.860;10.562;2023-03-01T01:50:09;25.10;;;12.75;;
27999;SDS011;15328;50.860;10.562;2023-03-01T01:55:20;24.98;;;12.35;;
27999;SDS011;15328;50.860;10.562;2023-03-01T02:00:24;25.02;;;12.75;;
27999;SDS011;15328;50.860;10.562;2023-03-01T02:10:43;26.33;;;13.88;;
27999;SDS011;15328;50.860;10.562;2023-03-01T02:15:45;24.45;;;12.98;;
27999;SDS011;15328;50.860;10.562;2023-03-01T02:26:03;23.40;;;12.70;;
27999;SDS011;15328;50.860;10.562;2023-03-01T02:31:14;23.48;;;12.68;;
27999;SDS011;15328;50.860;10.562;2023-03-01T02:36:36;26.73;;;12.77;;
27999;SDS011;15328;50.860;10.562;2023-03-01T02:41:41;24.65;;;12.93;;
27999;SDS011;15328;50.860;10.562;2023-03-01T02:46:47;25.25;;;13.52;;
27999;SDS011;15328;50.860;10.562;2023-03-01T02:51:56;27.95;;;13.95;;
27999;SDS011;15328;50.860;10.562;2023-03-01T02:57:07;27.73;;;13.25;;
27999;SDS011;15328;50.860;10.562;2023-03-01T03:02:25;30.05;;;13.77;;
27999;SDS011;15328;50.860;10.562;2023-03-01T03:07:38;28.10;;;14.18;;
27999;SDS011;15328;50.860;10.562;2023-03-01T03:12:40;25.08;;;12.60;;
27999;SDS011;15328;50.860;10.562;2023-03-01T03:17:41;24.83;;;12.95;;
27999;SDS011;15328;50.860;10.562;2023-03-01T03:22:42;29.15;;;13.05;;
27999;SDS011;15328;50.860;10.562;2023-03-01T03:27:43;25.03;;;13.13;;
27999;SDS011;15328;50.860;10.562;2023-03-01T03:32:46;26.98;;;14.45;;
27999;SDS011;15328;50.860;10.562;2023-03-01T03:37:50;27.70;;;13.00;;
27999;SDS011;15328;50.860;10.562;2023-03-01T03:43:04;25.63;;;13.05;;
27999;SDS011;15328;50.860;10.562;2023-03-01T03:48:08;29.15;;;13.60;;
27999;SDS011;15328;50.860;10.562;2023-03-01T03:53:11;26.30;;;14.57;;
27999;SDS011;15328;50.860;10.562;2023-03-01T03:58:12;25.55;;;13.10;;
27999;SDS011;15328;50.860;10.562;2023-03-01T04:03:13;30.00;;;14.75;;
27999;SDS011;15328;50.860;10.562;2023-03-01T04:08:15;31.42;;;14.77;;
27999;SDS011;15328;50.860;10.562;2023-03-01T04:13:17;28.75;;;14.30;;
27999;SDS011;15328;50.860;10.562;2023-03-01T04:18:23;29.08;;;14.55;;
27999;SDS011;15328;50.860;10.562;2023-03-01T04:23:25;27.70;;;14.13;;
27999;SDS011;15328;50.860;10.562;2023-03-01T04:28:26;28.50;;;13.93;;
27999;SDS011;15328;50.860;10.562;2023-03-01T04:33:32;29.70;;;15.15;;
27999;SDS011;15328;50.860;10.562;2023-03-01T04:43:42;31.63;;;15.00;;
27999;SDS011;15328;50.860;10.562;2023-03-01T04:48:45;29.17;;;14.82;;
27999;SDS011;15328;50.860;10.562;2023-03-01T04:53:47;29.40;;;14.00;;
27999;SDS011;15328;50.860;10.562;2023-03-01T04:58:47;29.05;;;14.57;;
27999;SDS011;15328;50.860;10.562;2023-03-01T05:03:48;30.05;;;15.45;;
27999;SDS011;15328;50.860;10.562;2023-03-01T05:08:50;35.55;;;17.17;;
27999;SDS011;15328;50.860;10.562;2023-03-01T05:13:50;32.63;;;16.63;;
27999;SDS011;15328;50.860;10.562;2023-03-01T05:18:54;33.22;;;16.27;;
27999;SDS011;15328;50.860;10.562;2023-03-01T05:23:55;33.30;;;16.05;;
27999;SDS011;15328;50.860;10.562;2023-03-01T05:28:55;29.90;;;15.18;;
27999;SDS011;15328;50.860;10.562;2023-03-01T05:33:59;34.97;;;16.13;;
27999;SDS011;15328;50.860;10.562;2023-03-01T05:38:59;32.13;;;15.57;;
27999;SDS011;15328;50.860;10.562;2023-03-01T05:44:00;30.70;;;16.17;;
27999;SDS011;15328;50.860;10.562;2023-03-01T05:49:00;32.67;;;16.27;;
27999;SDS011;15328;50.860;10.562;2023-03-01T05:54:00;30.52;;;15.38;;
27999;SDS011;15328;50.860;10.562;2023-03-01T05:59:01;33.42;;;16.73;;
27999;SDS011;15328;50.860;10.562;2023-03-01T06:04:03;30.60;;;15.43;;
27999;SDS011;15328;50.860;10.562;2023-03-01T06:09:04;33.33;;;16.63;;
27999;SDS011;15328;50.860;10.562;2023-03-01T06:14:07;34.60;;;15.73;;
27999;SDS011;15328;50.860;10.562;2023-03-01T06:19:07;30.40;;;14.43;;
27999;SDS011;15328;50.860;10.562;2023-03-01T06:24:08;30.85;;;16.30;;
27999;SDS011;15328;50.860;10.562;2023-03-01T06:29:09;34.80;;;16.02;;
27999;SDS011;15328;50.860;10.562;2023-03-01T06:34:09;36.33;;;18.00;;
27999;SDS011;15328;50.860;10.562;2023-03-01T06:39:13;30.35;;;16.25;;
27999;SDS011;15328;50.860;10.562;2023-03-01T06:44:13;34.10;;;16.85;;
27999;SDS011;15328;50.860;10.562;2023-03-01T06:49:14;30.27;;;16.27;;
27999;SDS011;15328;50.860;10.562;2023-03-01T06:54:16;31.35;;;15.88;;
27999;SDS011;15328;50.860;10.562;2023-03-01T06:59:17;30.23;;;15.93;;
27999;SDS011;15328;50.860;10.562;2023-03-01T07:04:18;30.75;;;15.18;;
27999;SDS011;15328;50.860;10.562;2023-03-01T07:09:18;51.53;;;21.47;;
27999;SDS011;15328;50.860;10.562;2023-03-01T07:14:19;44.17;;;21.48;;
27999;SDS011;15328;50.860;10.562;2023-03-01T07:19:20;54.55;;;26.08;;
27999;SDS011;15328;50.860;10.562;2023-03-01T07:24:21;47.05;;;23.35;;
27999;SDS011;15328;50.860;10.562;2023-03-01T07:29:22;60.40;;;27.02;;
27999;SDS011;15328;50.860;10.562;2023-03-01T07:34:22;35.47;;;18.87;;
27999;SDS011;15328;50.860;10.562;2023-03-01T07:39:22;32.55;;;16.85;;
27999;SDS011;15328;50.860;10.562;2023-03-01T07:44:23;28.42;;;16.45;;
27999;SDS011;15328;50.860;10.562;2023-03-01T07:49:23;31.70;;;16.02;;
27999;SDS011;15328;50.860;10.562;2023-03-01T07:54:24;26.65;;;13.88;;
27999;SDS011;15328;50.860;10.562;2023-03-01T07:59:24;29.73;;;14.65;;
27999;SDS011;15328;50.860;10.562;2023-03-01T08:04:28;27.13;;;14.77;;
27999;SDS011;15328;50.860;10.562;2023-03-01T08:09:29;27.27;;;14.63;;
27999;SDS011;15328;50.860;10.562;2023-03-01T08:14:29;27.23;;;14.65;;
27999;SDS011;15328;50.860;10.562;2023-03-01T08:19:30;24.85;;;13.18;;
27999;SDS011;15328;50.860;10.562;2023-03-01T08:24:31;25.52;;;14.05;;
27999;SDS011;15328;50.860;10.562;2023-03-01T08:29:31;26.30;;;13.85;;
27999;SDS011;15328;50.860;10.562;2023-03-01T08:34:32;30.85;;;16.05;;
27999;SDS011;15328;50.860;10.562;2023-03-01T08:39:35;28.08;;;15.43;;
27999;SDS011;15328;50.860;10.562;2023-03-01T08:44:35;29.80;;;16.40;;
27999;SDS011;15328;50.860;10.562;2023-03-01T08:49:36;29.67;;;16.45;;
27999;SDS011;15328;50.860;10.562;2023-03-01T08:54:36;26.33;;;15.18;;
27999;SDS011;15328;50.860;10.562;2023-03-01T08:59:37;30.15;;;16.83;;
27999;SDS011;15328;50.860;10.562;2023-03-01T09:04:37;32.97;;;16.00;;
27999;SDS011;15328;50.860;10.562;2023-03-01T09:09:38;28.48;;;15.98;;
27999;SDS011;15328;50.860;10.562;2023-03-01T09:14:38;26.87;;;16.50;;
27999;SDS011;15328;50.860;10.562;2023-03-01T09:19:38;28.05;;;15.90;;
27999;SDS011;15328;50.860;10.562;2023-03-01T09:24:39;29.23;;;16.13;;
27999;SDS011;15328;50.860;10.562;2023-03-01T09:29:40;33.83;;;15.00;;
27999;SDS011;15328;50.860;10.562;2023-03-01T09:34:40;23.20;;;14.07;;
27999;SDS011;15328;50.860;10.562;2023-03-01T09:39:59;24.05;;;13.27;;
27999;SDS011;15328;50.860;10.562;2023-03-01T09:45:04;21.52;;;13.68;;
27999;SDS011;15328;50.860;10.562;2023-03-01T09:50:13;20.98;;;12.70;;
27999;SDS011;15328;50.860;10.562;2023-03-01T09:55:27;18.30;;;12.15;;
27999;SDS011;15328;50.860;10.562;2023-03-01T10:00:43;22.10;;;13.10;;
27999;SDS011;15328;50.860;10.562;2023-03-01T10:05:53;19.33;;;13.13;;
27999;SDS011;15328;50.860;10.562;2023-03-01T10:10:59;18.67;;;12.57;;
27999;SDS011;15328;50.860;10.562;2023-03-01T10:21:23;19.92;;;12.80;;
27999;SDS011;15328;50.860;10.562;2023-03-01T10:31:43;21.02;;;13.32;;
27999;SDS011;15328;50.860;10.562;2023-03-01T10:36:49;20.95;;;12.90;;
27999;SDS011;15328;50.860;10.562;2023-03-01T10:41:52;23.90;;;13.38;;
27999;SDS011;15328;50.860;10.562;2023-03-01T10:46:59;22.67;;;13.88;;
27999;SDS011;15328;50.860;10.562;2023-03-01T10:52:10;20.25;;;13.20;;
27999;SDS011;15328;50.860;10.562;2023-03-01T10:57:27;22.17;;;13.43;;
27999;SDS011;15328;50.860;10.562;2023-03-01T11:02:30;22.55;;;14.07;;
27999;SDS011;15328;50.860;10.562;2023-03-01T11:07:33;21.17;;;13.00;;
27999;SDS011;15328;50.860;10.562;2023-03-01T11:12:52;19.85;;;12.45;;
27999;SDS011;15328;50.860;10.562;2023-03-01T11:17:53;25.63;;;15.43;;
27999;SDS011;15328;50.860;10.562;2023-03-01T11:23:03;20.95;;;14.02;;
27999;SDS011;15328;50.860;10.562;2023-03-01T11:28:10;22.88;;;14.98;;
27999;SDS011;15328;50.860;10.562;2023-03-01T11:38:44;22.83;;;14.00;;
27999;SDS011;15328;50.860;10.562;2023-03-01T11:43:56;22.05;;;13.52;;
27999;SDS011;15328;50.860;10.562;2023-03-01T11:49:04;22.67;;;13.57;;
27999;SDS011;15328;50.860;10.562;2023-03-01T12:36:39;16.70;;;11.27;;
27999;SDS011;15328;50.860;10.562;2023-03-01T12:41:58;19.25;;;12.18;;
27999;SDS011;15328;50.860;10.562;2023-03-01T12:47:24;19.40;;;12.38;;
27999;SDS011;15328;50.860;10.562;2023-03-01T12:52:39;20.88;;;11.85;;
27999;SDS011;15328;50.860;10.562;2023-03-01T12:57:46;18.42;;;12.20;;
27999;SDS011;15328;50.860;10.562;2023-03-01T13:13:33;22.10;;;13.93;;
27999;SDS011;15328;50.860;10.562;2023-03-01T13:18:33;21.40;;;12.98;;
27999;SDS011;15328;50.860;10.562;2023-03-01T13:23:34;25.80;;;12.77;;
27999;SDS011;15328;50.860;10.562;2023-03-01T13:28:44;20.77;;;13.80;;
27999;SDS011;15328;50.860;10.562;2023-03-01T13:33:52;23.52;;;13.82;;
27999;SDS011;15328;50.860;10.562;2023-03-01T13:43:57;22.80;;;13.85;;
27999;SDS011;15328;50.860;10.562;2023-03-01T13:48:58;20.77;;;12.55;;
27999;SDS011;15328;50.860;10.562;2023-03-01T13:53:58;23.13;;;13.23;;
27999;SDS011;15328;50.860;10.562;2023-03-01T13:59:01;22.52;;;13.63;;
27999;SDS011;15328;50.860;10.562;2023-03-01T14:04:18;23.48;;;14.27;;
27999;SDS011;15328;50.860;10.562;2023-03-01T14:09:22;23.52;;;12.77;;
27999;SDS011;15328;50.860;10.562;2023-03-01T14:19:56;20.05;;;12.32;;
27999;SDS011;15328;50.860;10.562;2023-03-01T14:25:00;19.92;;;12.30;;
27999;SDS011;15328;50.860;10.562;2023-03-01T14:30:04;19.85;;;11.82;;
27999;SDS011;15328;50.860;10.562;2023-03-01T14:35:19;16.23;;;10.40;;
27999;SDS011;15328;50.860;10.562;2023-03-01T14:40:23;17.42;;;11.18;;
27999;SDS011;15328;50.860;10.562;2023-03-01T14:45:26;25.45;;;13.68;;
27999;SDS011;15328;50.860;10.562;2023-03-01T14:50:32;18.77;;;11.88;;
27999;SDS011;15328;50.860;10.562;2023-03-01T14:55:36;24.88;;;12.55;;
27999;SDS011;15328;50.860;10.562;2023-03-01T15:00:51;19.92;;;11.80;;
27999;SDS011;15328;50.860;10.562;2023-03-01T15:05:57;22.48;;;12.85;;
27999;SDS011;15328;50.860;10.562;2023-03-01T15:11:04;20.40;;;11.57;;
27999;SDS011;15328;50.860;10.562;2023-03-01T15:16:27;22.42;;;12.27;;
27999;SDS011;15328;50.860;10.562;2023-03-01T15:21:34;21.98;;;12.65;;
27999;SDS011;15328;50.860;10.562;2023-03-01T15:26:41;21.77;;;12.93;;
27999;SDS011;15328;50.860;10.562;2023-03-01T15:31:50;23.98;;;13.05;;
27999;SDS011;15328;50.860;10.562;2023-03-01T15:37:00;21.58;;;13.00;;
27999;SDS011;15328;50.860;10.562;2023-03-01T15:42:07;27.17;;;13.52;;
27999;SDS011;15328;50.860;10.562;2023-03-01T15:52:29;22.40;;;13.85;;
27999;SDS011;15328;50.860;10.562;2023-03-01T15:57:39;28.85;;;15.15;;
27999;SDS011;15328;50.860;10.562;2023-03-01T16:02:40;24.67;;;14.23;;
27999;SDS011;15328;50.860;10.562;2023-03-01T16:07:42;26.60;;;13.75;;
27999;SDS011;15328;50.860;10.562;2023-03-01T16:12:42;27.92;;;14.27;;
27999;SDS011;15328;50.860;10.562;2023-03-01T16:17:42;24.15;;;12.63;;
27999;SDS011;15328;50.860;10.562;2023-03-01T16:22:43;31.67;;;14.80;;
27999;SDS011;15328;50.860;10.562;2023-03-01T16:27:45;35.75;;;17.75;;
27999;SDS011;15328;50.860;10.562;2023-03-01T16:32:47;31.67;;;16.00;;
27999;SDS011;15328;50.860;10.562;2023-03-01T16:37:48;28.58;;;14.98;;
27999;SDS011;15328;50.860;10.562;2023-03-01T16:42:49;33.03;;;16.38;;
27999;SDS011;15328;50.860;10.562;2023-03-01T16:47:51;32.30;;;17.35;;
27999;SDS011;15328;50.860;10.562;2023-03-01T16:52:52;29.05;;;16.27;;
27999;SDS011;15328;50.860;10.562;2023-03-01T16:57:52;40.58;;;20.63;;
27999;SDS011;15328;50.860;10.562;2023-03-01T17:02:53;37.63;;;19.55;;
27999;SDS011;15328;50.860;10.562;2023-03-01T17:07:54;36.08;;;19.60;;
27999;SDS011;15328;50.860;10.562;2023-03-01T17:12:55;32.63;;;18.48;;
27999;SDS011;15328;50.860;10.562;2023-03-01T17:17:56;36.57;;;18.93;;
27999;SDS011;15328;50.860;10.562;2023-03-01T17:22:56;32.87;;;18.63;;
27999;SDS011;15328;50.860;10.562;2023-03-01T17:28:00;31.77;;;18.55;;
27999;SDS011;15328;50.860;10.562;2023-03-01T17:33:01;30.23;;;17.70;;
27999;SDS011;15328;50.860;10.562;2023-03-01T17:38:01;31.98;;;17.20;;
27999;SDS011;15328;50.860;10.562;2023-03-01T17:43:02;33.67;;;16.77;;
27999;SDS011;15328;50.860;10.562;2023-03-01T17:48:04;31.30;;;17.02;;
27999;SDS011;15328;50.860;10.562;2023-03-01T17:53:06;29.38;;;15.48;;
27999;SDS011;15328;50.860;10.562;2023-03-01T17:58:09;28.98;;;15.13;;
27999;SDS011;15328;50.860;10.562;2023-03-01T18:03:11;26.85;;;14.80;;
27999;SDS011;15328;50.860;10.562;2023-03-01T18:08:12;28.45;;;15.07;;
27999;SDS011;15328;50.860;10.562;2023-03-01T18:13:13;24.90;;;13.95;;
27999;SDS011;15328;50.860;10.562;2023-03-01T18:18:13;25.95;;;13.93;;
27999;SDS011;15328;50.860;10.562;2023-03-01T18:23:14;25.20;;;13.15;;
27999;SDS011;15328;50.860;10.562;2023-03-01T18:28:14;26.05;;;13.73;;
27999;SDS011;15328;50.860;10.562;2023-03-01T18:33:15;27.73;;;14.30;;
27999;SDS011;15328;50.860;10.562;2023-03-01T18:38:15;27.20;;;14.30;;
27999;SDS011;15328;50.860;10.562;2023-03-01T18:43:16;29.70;;;14.73;;
27999;SDS011;15328;50.860;10.562;2023-03-01T18:48:17;24.73;;;13.60;;
27999;SDS011;15328;50.860;10.562;2023-03-01T18:53:17;70.20;;;18.17;;
27999;SDS011;15328;50.860;10.562;2023-03-01T18:58:18;31.85;;;15.68;;
27999;SDS011;15328;50.860;10.562;2023-03-01T19:03:18;355.55;;;42.85;;
27999;SDS011;15328;50.860;10.562;2023-03-01T19:08:19;52.20;;;22.50;;
27999;SDS011;15328;50.860;10.562;2023-03-01T19:13:19;43.53;;;23.25;;
27999;SDS011;15328;50.860;10.562;2023-03-01T19:18:20;42.23;;;21.30;;
27999;SDS011;15328;50.860;10.562;2023-03-01T19:23:23;33.63;;;17.48;;
27999;SDS011;15328;50.860;10.562;2023-03-01T19:28:23;33.72;;;16.60;;
27999;SDS011;15328;50.860;10.562;2023-03-01T19:33:24;34.38;;;17.88;;
27999;SDS011;15328;50.860;10.562;2023-03-01T19:38:24;30.50;;;16.80;;
27999;SDS011;15328;50.860;10.562;2023-03-01T19:43:25;29.88;;;16.40;;
27999;SDS011;15328;50.860;10.562;2023-03-01T19:48:25;29.65;;;15.48;;
27999;SDS011;15328;50.860;10.562;2023-03-01T19:53:56;32.75;;;18.13;;
27999;SDS011;15328;50.860;10.562;2023-03-01T19:58:59;30.50;;;16.37;;
27999;SDS011;15328;50.860;10.562;2023-03-01T20:04:03;28.35;;;15.48;;
27999;SDS011;15328;50.860;10.562;2023-03-01T20:09:04;49.08;;;25.42;;
27999;SDS011;15328;50.860;10.562;2023-03-01T20:14:05;39.67;;;22.10;;
27999;SDS011;15328;50.860;10.562;2023-03-01T20:19:09;36.05;;;19.92;;
27999;SDS011;15328;50.860;10.562;2023-03-01T20:24:10;42.67;;;19.70;;
27999;SDS011;15328;50.860;10.562;2023-03-01T20:29:10;38.08;;;20.30;;
27999;SDS011;15328;50.860;10.562;2023-03-01T20:34:11;29.60;;;15.57;;
27999;SDS011;15328;50.860;10.562;2023-03-01T20:39:11;31.30;;;16.15;;
27999;SDS011;15328;50.860;10.562;2023-03-01T20:44:12;40.10;;;20.65;;
27999;SDS011;15328;50.860;10.562;2023-03-01T20:49:12;41.92;;;22.38;;
27999;SDS011;15328;50.860;10.562;2023-03-01T20:54:13;40.50;;;21.52;;
27999;SDS011;15328;50.860;10.562;2023-03-01T20:59:13;35.50;;;20.55;;
27999;SDS011;15328;50.860;10.562;2023-03-01T21:04:15;33.33;;;18.38;;
27999;SDS011;15328;50.860;10.562;2023-03-01T21:09:16;44.90;;;22.42;;
27999;SDS011;15328;50.860;10.562;2023-03-01T21:14:17;49.55;;;23.88;;
27999;SDS011;15328;50.860;10.562;2023-03-01T21:19:17;53.58;;;24.83;;
27999;SDS011;15328;50.860;10.562;2023-03-01T21:24:18;40.75;;;20.33;;
27999;SDS011;15328;50.860;10.562;2023-03-01T21:29:18;33.00;;;16.13;;
27999;SDS011;15328;50.860;10.562;2023-03-01T21:34:18;42.80;;;21.73;;
27999;SDS011;15328;50.860;10.562;2023-03-01T21:39:19;48.88;;;25.05;;
27999;SDS011;15328;50.860;10.562;2023-03-01T21:44:20;44.10;;;23.08;;
27999;SDS011;15328;50.860;10.562;2023-03-01T21:49:22;38.95;;;20.08;;
27999;SDS011;15328;50.860;10.562;2023-03-01T21:54:22;34.10;;;17.25;;
27999;SDS011;15328;50.860;10.562;2023-03-01T21:59:22;52.07;;;25.93;;
27999;SDS011;15328;50.860;10.562;2023-03-01T22:04:23;38.08;;;20.77;;
27999;SDS011;15328;50.860;10.562;2023-03-01T22:09:24;37.17;;;19.83;;
27999;SDS011;15328;50.860;10.562;2023-03-01T22:14:24;34.22;;;17.30;;
27999;SDS011;15328;50.860;10.562;2023-03-01T22:19:25;28.73;;;15.65;;
27999;SDS011;15328;50.860;10.562;2023-03-01T22:24:27;28.67;;;14.48;;
27999;SDS011;15328;50.860;10.562;2023-03-01T22:29:28;27.95;;;14.60;;
27999;SDS011;15328;50.860;10.562;2023-03-01T22:34:28;39.28;;;20.52;;
27999;SDS011;15328;50.860;10.562;2023-03-01T22:39:29;42.20;;;21.98;;
27999;SDS011;15328;50.860;10.562;2023-03-01T22:44:30;43.13;;;21.27;;
27999;SDS011;15328;50.860;10.562;2023-03-01T22:49:31;35.97;;;17.73;;
27999;SDS011;15328;50.860;10.562;2023-03-01T22:54:31;41.10;;;19.63;;
27999;SDS011;15328;50.860;10.562;2023-03-01T22:59:32;52.85;;;25.35;;
27999;SDS011;15328;50.860;10.562;2023-03-01T23:04:32;45.08;;;22.00;;
27999;SDS011;15328;50.860;10.562;2023-03-01T23:09:32;39.23;;;21.20;;
27999;SDS011;15328;50.860;10.562;2023-03-01T23:14:33;38.70;;;19.33;;
27999;SDS011;15328;50.860;10.562;2023-03-01T23:19:34;33.85;;;17.77;;
27999;SDS011;15328;50.860;10.562;2023-03-01T23:24:37;32.75;;;16.20;;
27999;SDS011;15328;50.860;10.562;2023-03-01T23:29:38;29.50;;;15.43;;
27999;SDS011;15328;50.860;10.562;2023-03-01T23:34:39;27.88;;;14.05;;
27999;SDS011;15328;50.860;10.562;2023-03-01T23:39:42;28.00;;;13.70;;
27999;SDS011;15328;50.860;10.562;2023-03-01T23:44:43;23.98;;;11.73;;
27999;SDS011;15328;50.860;10.562;2023-03-01T23:49:44;23.63;;;11.05;;
27999;SDS011;15328;50.860;10.562;2023-03-01T23:54:44;23.15;;;10.98;;
27999;SDS011;15328;50.860;10.562;2023-03-01T23:59:45;23.55;;;11.68;;
